sensor_id;sensor_type;location;lat;lon;timestamp;P1;durP1;ratioP1;P2;durP2;ratioP2
72123;SDS011;63818;37.134;-8.548;2023-09-19T00:02:32;12.8;;;5.2;;
72123;SDS011;63818;37.134;-8.548;2023-09-19T00:07:17;12.4;;;5.1;;
72123;SDS011;63818;37.134;-8.548;2023-09-19T00:12:06;13.6;;;5.1;;
72123;SDS011;63818;37.134;-8.548;2023-09-19T00:16:52;13.9;;;5.4;;
72123;SDS011;63818;37.134;-8.548;2023-09-19T00:21:38;15.7;;;5.5;;
72123;SDS011;63818;37.134;-8.548;2023-09-19T00:26:24;16.0;;;5.4;;
72123;SDS011;63818;37.134;-8.548;2023-09-19T00:31:10;14.4;;;5.5;;
72123;SDS011;63818;37.134;-8.548;2023-09-19T00:35:56;14.7;;;5.7;;
72123;SDS011;63818;37.134;-8.548;2023-09-19T00:40:45;14.6;;;5.7;;
72123;SDS011;63818;37.134;-8.548;2023-09-19T00:45:31;14.6;;;5.5;;
72123;SDS011;63818;37.134;-8.548;2023-09-19T00:50:18;14.5;;;5.6;;
72123;SDS011;63818;37.134;-8.548;2023-09-19T00:55:05;12.7;;;5.7;;
72123;SDS011;63818;37.134;-8.548;2023-09-19T00:59:52;14.0;;;5.6;;
72123;SDS011;63818;37.134;-8.548;2023-09-19T01:04:41;14.4;;;5.6;;
72123;SDS011;63818;37.134;-8.548;2023-09-19T01:09:27;13.1;;;5.7;;
72123;SDS011;63818;37.134;-8.548;2023-09-19T01:14:20;18.1;;;6.2;;
72123;SDS011;63818;37.134;-8.548;2023-09-19T01:20:00;18.4;;;6.1;;
72123;SDS011;63818;37.134;-8.548;2023-09-19T01:25:19;15.6;;;5.9;;
72123;SDS011;63818;37.134;-8.548;2023-09-19T01:30:38;15.9;;;5.9;;
72123;SDS011;63818;37.134;-8.548;2023-09-19T01:35:28;15.5;;;5.8;;
72123;SDS011;63818;37.134;-8.548;2023-09-19T01:40:17;15.7;;;6.1;;
72123;SDS011;63818;37.134;-8.548;2023-09-19T01:45:09;13.8;;;5.8;;
72123;SDS011;63818;37.134;-8.548;2023-09-19T01:50:00;14.6;;;5.7;;
72123;SDS011;63818;37.134;-8.548;2023-09-19T01:54:55;14.5;;;5.8;;
72123;SDS011;63818;37.134;-8.548;2023-09-19T01:59:45;13.6;;;5.5;;
72123;SDS011;63818;37.134;-8.548;2023-09-19T02:04:36;15.0;;;5.9;;
72123;SDS011;63818;37.134;-8.548;2023-09-19T02:09:22;14.8;;;6.0;;
72123;SDS011;63818;37.134;-8.548;2023-09-19T02:14:08;14.8;;;5.6;;
72123;SDS011;63818;37.134;-8.548;2023-09-19T02:18:55;15.2;;;5.5;;
72123;SDS011;63818;37.134;-8.548;2023-09-19T02:23:41;14.6;;;5.7;;
72123;SDS011;63818;37.134;-8.548;2023-09-19T02:28:26;12.5;;;5.7;;
72123;SDS011;63818;37.134;-8.548;2023-09-19T02:33:13;15.7;;;5.6;;
72123;SDS011;63818;37.134;-8.548;2023-09-19T02:37:59;17.2;;;5.5;;
72123;SDS011;63818;37.134;-8.548;2023-09-19T02:42:47;17.0;;;5.8;;
72123;SDS011;63818;37.134;-8.548;2023-09-19T02:47:34;18.1;;;5.9;;
72123;SDS011;63818;37.134;-8.548;2023-09-19T02:52:21;15.3;;;5.6;;
72123;SDS011;63818;37.134;-8.548;2023-09-19T02:57:07;12.9;;;5.4;;
72123;SDS011;63818;37.134;-8.548;2023-09-19T03:01:56;14.8;;;5.4;;
72123;SDS011;63818;37.134;-8.548;2023-09-19T03:06:41;15.9;;;5.6;;
72123;SDS011;63818;37.134;-8.548;2023-09-19T03:11:28;14.4;;;5.8;;
72123;SDS011;63818;37.134;-8.548;2023-09-19T03:16:14;15.1;;;5.7;;
72123;SDS011;63818;37.134;-8.548;2023-09-19T03:21:00;16.2;;;5.6;;
72123;SDS011;63818;37.134;-8.548;2023-09-19T03:25:46;15.1;;;5.5;;
72123;SDS011;63818;37.134;-8.548;2023-09-19T03:30:32;15.5;;;5.3;;
72123;SDS011;63818;37.134;-8.548;2023-09-19T03:35:18;14.4;;;5.4;;
72123;SDS011;63818;37.134;-8.548;2023-09-19T03:40:04;12.1;;;5.4;;
72123;SDS011;63818;37.134;-8.548;2023-09-19T03:44:50;13.0;;;5.3;;
72123;SDS011;63818;37.134;-8.548;2023-09-19T03:49:36;14.0;;;5.2;;
72123;SDS011;63818;37.134;-8.548;2023-09-19T03:54:22;12.3;;;5.1;;
72123;SDS011;63818;37.134;-8.548;2023-09-19T03:59:08;10.8;;;4.9;;
72123;SDS011;63818;37.134;-8.548;2023-09-19T04:03:54;12.3;;;5.0;;
72123;SDS011;63818;37.134;-8.548;2023-09-19T04:08:40;14.9;;;5.1;;
72123;SDS011;63818;37.134;-8.548;2023-09-19T04:13:26;14.2;;;5.2;;
72123;SDS011;63818;37.134;-8.548;2023-09-19T04:18:12;11.4;;;5.2;;
72123;SDS011;63818;37.134;-8.548;2023-09-19T04:22:58;11.2;;;5.1;;
72123;SDS011;63818;37.134;-8.548;2023-09-19T04:27:44;11.9;;;4.9;;
72123;SDS011;63818;37.134;-8.548;2023-09-19T04:32:30;11.5;;;4.9;;
72123;SDS011;63818;37.134;-8.548;2023-09-19T04:37:16;10.5;;;4.9;;
72123;SDS011;63818;37.134;-8.548;2023-09-19T04:42:02;13.2;;;5.3;;
72123;SDS011;63818;37.134;-8.548;2023-09-19T04:46:48;13.6;;;5.3;;
72123;SDS011;63818;37.134;-8.548;2023-09-19T04:51:34;14.2;;;5.1;;
72123;SDS011;63818;37.134;-8.548;2023-09-19T04:56:20;16.6;;;5.2;;
72123;SDS011;63818;37.134;-8.548;2023-09-19T05:01:06;13.8;;;5.2;;
72123;SDS011;63818;37.134;-8.548;2023-09-19T05:05:52;13.9;;;5.2;;
72123;SDS011;63818;37.134;-8.548;2023-09-19T05:10:38;15.8;;;5.3;;
72123;SDS011;63818;37.134;-8.548;2023-09-19T05:15:24;13.4;;;4.9;;
72123;SDS011;63818;37.134;-8.548;2023-09-19T05:20:11;11.0;;;4.7;;
72123;SDS011;63818;37.134;-8.548;2023-09-19T05:24:59;14.9;;;5.2;;
72123;SDS011;63818;37.134;-8.548;2023-09-19T05:29:46;17.6;;;5.7;;
72123;SDS011;63818;37.134;-8.548;2023-09-19T05:34:31;13.9;;;5.4;;
72123;SDS011;63818;37.134;-8.548;2023-09-19T05:39:18;12.2;;;4.9;;
72123;SDS011;63818;37.134;-8.548;2023-09-19T05:44:03;15.4;;;5.3;;
72123;SDS011;63818;37.134;-8.548;2023-09-19T05:48:50;14.7;;;5.3;;
72123;SDS011;63818;37.134;-8.548;2023-09-19T05:53:36;12.7;;;5.1;;
72123;SDS011;63818;37.134;-8.548;2023-09-19T05:58:21;15.1;;;5.3;;
72123;SDS011;63818;37.134;-8.548;2023-09-19T06:03:07;16.0;;;5.3;;
72123;SDS011;63818;37.134;-8.548;2023-09-19T06:07:53;14.7;;;5.2;;
72123;SDS011;63818;37.134;-8.548;2023-09-19T06:12:40;13.4;;;5.4;;
72123;SDS011;63818;37.134;-8.548;2023-09-19T06:17:26;13.8;;;5.3;;
72123;SDS011;63818;37.134;-8.548;2023-09-19T06:22:12;14.3;;;5.4;;
72123;SDS011;63818;37.134;-8.548;2023-09-19T06:27:00;13.9;;;5.5;;
72123;SDS011;63818;37.134;-8.548;2023-09-19T06:31:46;13.5;;;5.3;;
72123;SDS011;63818;37.134;-8.548;2023-09-19T06:36:32;15.0;;;5.7;;
72123;SDS011;63818;37.134;-8.548;2023-09-19T06:41:18;15.3;;;5.7;;
72123;SDS011;63818;37.134;-8.548;2023-09-19T06:46:04;13.5;;;5.3;;
72123;SDS011;63818;37.134;-8.548;2023-09-19T06:50:51;14.8;;;5.4;;
72123;SDS011;63818;37.134;-8.548;2023-09-19T06:55:38;14.9;;;5.3;;
72123;SDS011;63818;37.134;-8.548;2023-09-19T07:00:24;15.6;;;5.5;;
72123;SDS011;63818;37.134;-8.548;2023-09-19T07:05:10;14.6;;;5.5;;
72123;SDS011;63818;37.134;-8.548;2023-09-19T07:09:56;10.9;;;5.3;;
72123;SDS011;63818;37.134;-8.548;2023-09-19T07:14:42;10.1;;;5.2;;
72123;SDS011;63818;37.134;-8.548;2023-09-19T07:19:31;12.3;;;5.5;;
72123;SDS011;63818;37.134;-8.548;2023-09-19T07:24:17;15.3;;;5.5;;
72123;SDS011;63818;37.134;-8.548;2023-09-19T07:29:03;15.5;;;5.3;;
72123;SDS011;63818;37.134;-8.548;2023-09-19T07:33:49;16.7;;;5.7;;
72123;SDS011;63818;37.134;-8.548;2023-09-19T07:38:35;14.7;;;5.8;;
72123;SDS011;63818;37.134;-8.548;2023-09-19T07:43:21;13.7;;;6.0;;
72123;SDS011;63818;37.134;-8.548;2023-09-19T07:48:07;16.7;;;6.0;;
72123;SDS011;63818;37.134;-8.548;2023-09-19T07:52:53;14.9;;;5.5;;
72123;SDS011;63818;37.134;-8.548;2023-09-19T07:57:39;13.8;;;5.4;;
72123;SDS011;63818;37.134;-8.548;2023-09-19T08:02:27;15.3;;;5.6;;
72123;SDS011;63818;37.134;-8.548;2023-09-19T08:07:13;15.7;;;5.4;;
72123;SDS011;63818;37.134;-8.548;2023-09-19T08:12:00;18.0;;;5.4;;
72123;SDS011;63818;37.134;-8.548;2023-09-19T08:16:46;18.0;;;5.4;;
72123;SDS011;63818;37.134;-8.548;2023-09-19T08:21:32;14.9;;;5.5;;
72123;SDS011;63818;37.134;-8.548;2023-09-19T08:26:17;14.7;;;5.5;;
72123;SDS011;63818;37.134;-8.548;2023-09-19T08:31:04;14.9;;;5.4;;
72123;SDS011;63818;37.134;-8.548;2023-09-19T08:35:51;12.3;;;5.3;;
72123;SDS011;63818;37.134;-8.548;2023-09-19T08:40:38;12.7;;;5.5;;
72123;SDS011;63818;37.134;-8.548;2023-09-19T08:45:26;15.3;;;5.7;;
72123;SDS011;63818;37.134;-8.548;2023-09-19T08:50:18;14.2;;;5.6;;
72123;SDS011;63818;37.134;-8.548;2023-09-19T08:55:11;12.5;;;5.4;;
72123;SDS011;63818;37.134;-8.548;2023-09-19T08:59:58;13.2;;;5.4;;
72123;SDS011;63818;37.134;-8.548;2023-09-19T09:04:44;14.5;;;5.7;;
72123;SDS011;63818;37.134;-8.548;2023-09-19T09:09:32;11.9;;;5.4;;
72123;SDS011;63818;37.134;-8.548;2023-09-19T09:14:20;12.3;;;5.3;;
72123;SDS011;63818;37.134;-8.548;2023-09-19T09:19:07;14.1;;;5.8;;
72123;SDS011;63818;37.134;-8.548;2023-09-19T09:23:53;16.6;;;5.9;;
72123;SDS011;63818;37.134;-8.548;2023-09-19T09:28:46;16.3;;;5.8;;
72123;SDS011;63818;37.134;-8.548;2023-09-19T09:33:51;12.7;;;5.7;;
72123;SDS011;63818;37.134;-8.548;2023-09-19T09:38:47;14.2;;;5.8;;
72123;SDS011;63818;37.134;-8.548;2023-09-19T09:43:34;16.2;;;6.0;;
72123;SDS011;63818;37.134;-8.548;2023-09-19T09:48:25;18.1;;;6.4;;
72123;SDS011;63818;37.134;-8.548;2023-09-19T09:53:22;17.7;;;6.0;;
72123;SDS011;63818;37.134;-8.548;2023-09-19T09:58:18;15.7;;;5.6;;
72123;SDS011;63818;37.134;-8.548;2023-09-19T10:03:09;13.9;;;5.4;;
72123;SDS011;63818;37.134;-8.548;2023-09-19T10:08:12;13.8;;;5.5;;
72123;SDS011;63818;37.134;-8.548;2023-09-19T10:13:01;13.7;;;5.7;;
72123;SDS011;63818;37.134;-8.548;2023-09-19T10:17:47;13.3;;;5.7;;
72123;SDS011;63818;37.134;-8.548;2023-09-19T10:22:34;12.9;;;5.5;;
72123;SDS011;63818;37.134;-8.548;2023-09-19T10:27:29;13.7;;;5.3;;
72123;SDS011;63818;37.134;-8.548;2023-09-19T10:32:17;14.8;;;5.5;;
72123;SDS011;63818;37.134;-8.548;2023-09-19T10:37:07;18.7;;;5.9;;
72123;SDS011;63818;37.134;-8.548;2023-09-19T10:41:55;19.2;;;6.0;;
72123;SDS011;63818;37.134;-8.548;2023-09-19T10:46:49;17.0;;;6.0;;
72123;SDS011;63818;37.134;-8.548;2023-09-19T10:51:41;18.9;;;5.9;;
72123;SDS011;63818;37.134;-8.548;2023-09-19T10:56:30;18.0;;;5.5;;
72123;SDS011;63818;37.134;-8.548;2023-09-19T11:01:21;15.8;;;5.4;;
72123;SDS011;63818;37.134;-8.548;2023-09-19T11:06:13;14.1;;;5.5;;
72123;SDS011;63818;37.134;-8.548;2023-09-19T11:11:01;11.9;;;5.4;;
72123;SDS011;63818;37.134;-8.548;2023-09-19T11:16:04;11.3;;;5.5;;
72123;SDS011;63818;37.134;-8.548;2023-09-19T11:20:51;12.4;;;5.7;;
72123;SDS011;63818;37.134;-8.548;2023-09-19T11:26:32;13.1;;;5.9;;
72123;SDS011;63818;37.134;-8.548;2023-09-19T11:38:01;13.2;;;5.7;;
72123;SDS011;63818;37.134;-8.548;2023-09-19T11:42:49;13.9;;;5.9;;
72123;SDS011;63818;37.134;-8.548;2023-09-19T11:47:35;13.6;;;5.9;;
72123;SDS011;63818;37.134;-8.548;2023-09-19T11:52:23;14.9;;;5.7;;
72123;SDS011;63818;37.134;-8.548;2023-09-19T11:57:10;13.6;;;5.4;;
72123;SDS011;63818;37.134;-8.548;2023-09-19T12:01:58;10.6;;;5.5;;
72123;SDS011;63818;37.134;-8.548;2023-09-19T12:06:46;12.8;;;5.6;;
72123;SDS011;63818;37.134;-8.548;2023-09-19T12:11:44;15.3;;;5.9;;
72123;SDS011;63818;37.134;-8.548;2023-09-19T12:16:30;13.8;;;5.8;;
72123;SDS011;63818;37.134;-8.548;2023-09-19T12:21:26;13.7;;;5.6;;
72123;SDS011;63818;37.134;-8.548;2023-09-19T12:26:13;14.7;;;5.5;;
72123;SDS011;63818;37.134;-8.548;2023-09-19T12:30:59;16.0;;;5.5;;
72123;SDS011;63818;37.134;-8.548;2023-09-19T12:35:53;18.0;;;5.8;;
72123;SDS011;63818;37.134;-8.548;2023-09-19T12:40:40;16.5;;;5.6;;
72123;SDS011;63818;37.134;-8.548;2023-09-19T12:45:26;15.1;;;5.7;;
72123;SDS011;63818;37.134;-8.548;2023-09-19T12:50:13;14.9;;;5.9;;
72123;SDS011;63818;37.134;-8.548;2023-09-19T12:55:00;16.7;;;6.2;;
72123;SDS011;63818;37.134;-8.548;2023-09-19T12:59:51;18.0;;;6.1;;
72123;SDS011;63818;37.134;-8.548;2023-09-19T13:04:38;16.2;;;5.6;;
72123;SDS011;63818;37.134;-8.548;2023-09-19T13:09:23;15.1;;;5.6;;
72123;SDS011;63818;37.134;-8.548;2023-09-19T13:14:19;13.9;;;5.9;;
72123;SDS011;63818;37.134;-8.548;2023-09-19T13:19:06;12.4;;;5.9;;
72123;SDS011;63818;37.134;-8.548;2023-09-19T13:23:53;13.7;;;5.5;;
72123;SDS011;63818;37.134;-8.548;2023-09-19T13:28:40;15.2;;;5.7;;
72123;SDS011;63818;37.134;-8.548;2023-09-19T13:33:28;13.1;;;5.9;;
72123;SDS011;63818;37.134;-8.548;2023-09-19T13:38:14;14.2;;;5.8;;
72123;SDS011;63818;37.134;-8.548;2023-09-19T13:43:01;15.5;;;5.9;;
72123;SDS011;63818;37.134;-8.548;2023-09-19T13:47:47;15.4;;;6.0;;
72123;SDS011;63818;37.134;-8.548;2023-09-19T13:52:35;13.7;;;5.5;;
72123;SDS011;63818;37.134;-8.548;2023-09-19T13:57:21;11.5;;;5.3;;
72123;SDS011;63818;37.134;-8.548;2023-09-19T14:02:10;12.3;;;5.6;;
72123;SDS011;63818;37.134;-8.548;2023-09-19T14:06:56;13.1;;;5.8;;
72123;SDS011;63818;37.134;-8.548;2023-09-19T14:11:43;14.3;;;5.9;;
72123;SDS011;63818;37.134;-8.548;2023-09-19T14:16:29;17.7;;;6.3;;
72123;SDS011;63818;37.134;-8.548;2023-09-19T14:21:24;16.0;;;6.0;;
72123;SDS011;63818;37.134;-8.548;2023-09-19T14:26:10;13.6;;;5.8;;
72123;SDS011;63818;37.134;-8.548;2023-09-19T14:30:56;13.9;;;5.9;;
72123;SDS011;63818;37.134;-8.548;2023-09-19T14:35:45;12.7;;;5.7;;
72123;SDS011;63818;37.134;-8.548;2023-09-19T14:40:33;12.2;;;5.8;;
72123;SDS011;63818;37.134;-8.548;2023-09-19T14:45:19;12.3;;;5.8;;
72123;SDS011;63818;37.134;-8.548;2023-09-19T14:50:06;12.6;;;5.9;;
72123;SDS011;63818;37.134;-8.548;2023-09-19T14:54:52;13.4;;;6.0;;
72123;SDS011;63818;37.134;-8.548;2023-09-19T14:59:42;13.7;;;6.2;;
72123;SDS011;63818;37.134;-8.548;2023-09-19T15:04:29;12.3;;;6.1;;
72123;SDS011;63818;37.134;-8.548;2023-09-19T15:09:18;11.6;;;5.6;;
72123;SDS011;63818;37.134;-8.548;2023-09-19T15:14:04;12.0;;;5.4;;
72123;SDS011;63818;37.134;-8.548;2023-09-19T15:18:51;11.8;;;5.5;;
72123;SDS011;63818;37.134;-8.548;2023-09-19T15:23:37;13.1;;;5.7;;
72123;SDS011;63818;37.134;-8.548;2023-09-19T15:28:30;13.1;;;5.7;;
72123;SDS011;63818;37.134;-8.548;2023-09-19T15:33:18;12.3;;;5.7;;
72123;SDS011;63818;37.134;-8.548;2023-09-19T15:38:04;14.9;;;6.1;;
72123;SDS011;63818;37.134;-8.548;2023-09-19T15:42:52;14.6;;;6.1;;
72123;SDS011;63818;37.134;-8.548;2023-09-19T15:47:39;11.8;;;5.8;;
72123;SDS011;63818;37.134;-8.548;2023-09-19T15:52:25;12.0;;;5.6;;
72123;SDS011;63818;37.134;-8.548;2023-09-19T15:57:11;14.5;;;5.7;;
72123;SDS011;63818;37.134;-8.548;2023-09-19T16:01:57;12.9;;;5.6;;
72123;SDS011;63818;37.134;-8.548;2023-09-19T16:06:43;11.8;;;5.7;;
72123;SDS011;63818;37.134;-8.548;2023-09-19T16:11:32;17.2;;;6.1;;
72123;SDS011;63818;37.134;-8.548;2023-09-19T16:16:20;19.4;;;6.3;;
72123;SDS011;63818;37.134;-8.548;2023-09-19T16:21:06;14.0;;;6.2;;
72123;SDS011;63818;37.134;-8.548;2023-09-19T16:26:01;12.9;;;5.9;;
72123;SDS011;63818;37.134;-8.548;2023-09-19T16:30:48;17.0;;;5.6;;
72123;SDS011;63818;37.134;-8.548;2023-09-19T16:35:38;15.9;;;5.4;;
72123;SDS011;63818;37.134;-8.548;2023-09-19T16:40:26;13.0;;;5.5;;
72123;SDS011;63818;37.134;-8.548;2023-09-19T16:45:12;13.4;;;5.6;;
72123;SDS011;63818;37.134;-8.548;2023-09-19T16:50:01;12.8;;;5.6;;
72123;SDS011;63818;37.134;-8.548;2023-09-19T16:54:46;13.9;;;5.6;;
72123;SDS011;63818;37.134;-8.548;2023-09-19T16:59:32;18.1;;;5.8;;
72123;SDS011;63818;37.134;-8.548;2023-09-19T17:04:19;18.4;;;6.0;;
72123;SDS011;63818;37.134;-8.548;2023-09-19T17:09:05;17.9;;;6.3;;
72123;SDS011;63818;37.134;-8.548;2023-09-19T17:13:53;18.3;;;6.4;;
72123;SDS011;63818;37.134;-8.548;2023-09-19T17:18:39;14.3;;;5.7;;
72123;SDS011;63818;37.134;-8.548;2023-09-19T17:23:31;13.4;;;5.8;;
72123;SDS011;63818;37.134;-8.548;2023-09-19T17:28:19;14.4;;;6.3;;
72123;SDS011;63818;37.134;-8.548;2023-09-19T17:33:04;15.1;;;6.1;;
72123;SDS011;63818;37.134;-8.548;2023-09-19T17:37:52;13.9;;;6.0;;
72123;SDS011;63818;37.134;-8.548;2023-09-19T17:42:40;13.5;;;6.4;;
72123;SDS011;63818;37.134;-8.548;2023-09-19T17:47:26;15.4;;;6.3;;
72123;SDS011;63818;37.134;-8.548;2023-09-19T17:52:17;19.1;;;6.1;;
72123;SDS011;63818;37.134;-8.548;2023-09-19T17:57:05;16.7;;;5.7;;
72123;SDS011;63818;37.134;-8.548;2023-09-19T18:01:51;13.4;;;5.5;;
72123;SDS011;63818;37.134;-8.548;2023-09-19T18:06:37;14.9;;;5.6;;
72123;SDS011;63818;37.134;-8.548;2023-09-19T18:11:25;11.7;;;5.5;;
72123;SDS011;63818;37.134;-8.548;2023-09-19T18:16:11;11.6;;;5.7;;
72123;SDS011;63818;37.134;-8.548;2023-09-19T18:20:59;12.3;;;5.7;;
72123;SDS011;63818;37.134;-8.548;2023-09-19T18:25:50;14.4;;;5.7;;
72123;SDS011;63818;37.134;-8.548;2023-09-19T18:30:36;14.3;;;5.8;;
72123;SDS011;63818;37.134;-8.548;2023-09-19T18:35:24;13.0;;;5.6;;
72123;SDS011;63818;37.134;-8.548;2023-09-19T18:40:15;13.9;;;5.7;;
72123;SDS011;63818;37.134;-8.548;2023-09-19T18:45:04;14.2;;;5.8;;
72123;SDS011;63818;37.134;-8.548;2023-09-19T18:49:50;13.8;;;5.6;;
72123;SDS011;63818;37.134;-8.548;2023-09-19T18:54:36;15.3;;;5.7;;
72123;SDS011;63818;37.134;-8.548;2023-09-19T18:59:22;16.2;;;5.8;;
72123;SDS011;63818;37.134;-8.548;2023-09-19T19:04:10;13.6;;;5.7;;
72123;SDS011;63818;37.134;-8.548;2023-09-19T19:09:07;12.5;;;6.2;;
72123;SDS011;63818;37.134;-8.548;2023-09-19T19:18:47;13.7;;;5.8;;
72123;SDS011;63818;37.134;-8.548;2023-09-19T19:23:33;13.6;;;5.6;;
72123;SDS011;63818;37.134;-8.548;2023-09-19T19:28:24;14.3;;;5.6;;
72123;SDS011;63818;37.134;-8.548;2023-09-19T19:33:11;14.7;;;5.6;;
72123;SDS011;63818;37.134;-8.548;2023-09-19T19:38:02;12.7;;;5.7;;
72123;SDS011;63818;37.134;-8.548;2023-09-19T19:42:57;11.5;;;5.8;;
72123;SDS011;63818;37.134;-8.548;2023-09-19T19:47:43;13.4;;;5.5;;
72123;SDS011;63818;37.134;-8.548;2023-09-19T19:52:29;12.5;;;5.3;;
72123;SDS011;63818;37.134;-8.548;2023-09-19T19:57:16;9.9;;;5.1;;
72123;SDS011;63818;37.134;-8.548;2023-09-19T20:02:03;11.4;;;5.3;;
72123;SDS011;63818;37.134;-8.548;2023-09-19T20:06:50;13.1;;;5.3;;
72123;SDS011;63818;37.134;-8.548;2023-09-19T20:11:39;13.1;;;5.4;;
72123;SDS011;63818;37.134;-8.548;2023-09-19T20:16:27;14.6;;;5.6;;
72123;SDS011;63818;37.134;-8.548;2023-09-19T20:21:14;14.7;;;5.5;;
72123;SDS011;63818;37.134;-8.548;2023-09-19T20:26:02;13.3;;;5.5;;
72123;SDS011;63818;37.134;-8.548;2023-09-19T20:30:49;14.0;;;5.4;;
72123;SDS011;63818;37.134;-8.548;2023-09-19T20:35:37;13.9;;;5.3;;
72123;SDS011;63818;37.134;-8.548;2023-09-19T20:40:25;11.1;;;5.2;;
72123;SDS011;63818;37.134;-8.548;2023-09-19T20:45:14;10.7;;;5.2;;
72123;SDS011;63818;37.134;-8.548;2023-09-19T20:50:00;12.7;;;5.2;;
72123;SDS011;63818;37.134;-8.548;2023-09-19T20:54:50;12.3;;;5.1;;
72123;SDS011;63818;37.134;-8.548;2023-09-19T20:59:37;13.5;;;5.2;;
72123;SDS011;63818;37.134;-8.548;2023-09-19T21:04:23;13.3;;;5.3;;
72123;SDS011;63818;37.134;-8.548;2023-09-19T21:09:08;11.1;;;5.2;;
72123;SDS011;63818;37.134;-8.548;2023-09-19T21:13:57;11.2;;;5.3;;
72123;SDS011;63818;37.134;-8.548;2023-09-19T21:18:43;12.1;;;5.7;;
72123;SDS011;63818;37.134;-8.548;2023-09-19T21:23:30;13.9;;;5.4;;
72123;SDS011;63818;37.134;-8.548;2023-09-19T21:28:16;15.4;;;5.3;;
72123;SDS011;63818;37.134;-8.548;2023-09-19T21:33:05;12.9;;;5.1;;
72123;SDS011;63818;37.134;-8.548;2023-09-19T21:37:56;10.7;;;4.8;;
72123;SDS011;63818;37.134;-8.548;2023-09-19T21:42:42;10.3;;;4.8;;
72123;SDS011;63818;37.134;-8.548;2023-09-19T21:47:28;11.1;;;5.1;;
72123;SDS011;63818;37.134;-8.548;2023-09-19T21:52:14;12.7;;;5.4;;
72123;SDS011;63818;37.134;-8.548;2023-09-19T21:57:02;12.1;;;5.2;;
72123;SDS011;63818;37.134;-8.548;2023-09-19T22:01:48;9.8;;;4.7;;
72123;SDS011;63818;37.134;-8.548;2023-09-19T22:06:37;8.8;;;4.9;;
72123;SDS011;63818;37.134;-8.548;2023-09-19T22:11:23;8.9;;;4.9;;
72123;SDS011;63818;37.134;-8.548;2023-09-19T22:16:09;9.2;;;4.8;;
72123;SDS011;63818;37.134;-8.548;2023-09-19T22:20:57;10.3;;;4.9;;
72123;SDS011;63818;37.134;-8.548;2023-09-19T22:25:43;11.8;;;5.2;;
72123;SDS011;63818;37.134;-8.548;2023-09-19T22:30:34;12.1;;;5.2;;
72123;SDS011;63818;37.134;-8.548;2023-09-19T22:35:21;10.8;;;4.8;;
72123;SDS011;63818;37.134;-8.548;2023-09-19T22:40:08;12.0;;;5.1;;
72123;SDS011;63818;37.134;-8.548;2023-09-19T22:44:54;12.8;;;5.2;;
72123;SDS011;63818;37.134;-8.548;2023-09-19T22:49:46;10.6;;;4.9;;
72123;SDS011;63818;37.134;-8.548;2023-09-19T22:54:33;9.1;;;5.0;;
72123;SDS011;63818;37.134;-8.548;2023-09-19T22:59:19;10.2;;;5.4;;
72123;SDS011;63818;37.134;-8.548;2023-09-19T23:04:11;11.5;;;5.4;;
72123;SDS011;63818;37.134;-8.548;2023-09-19T23:09:01;14.4;;;5.5;;
72123;SDS011;63818;37.134;-8.548;2023-09-19T23:13:47;12.8;;;5.4;;
72123;SDS011;63818;37.134;-8.548;2023-09-19T23:18:33;9.4;;;5.2;;
72123;SDS011;63818;37.134;-8.548;2023-09-19T23:23:20;9.9;;;5.3;;
72123;SDS011;63818;37.134;-8.548;2023-09-19T23:28:06;12.1;;;5.3;;
72123;SDS011;63818;37.134;-8.548;2023-09-19T23:32:52;14.1;;;5.5;;
72123;SDS011;63818;37.134;-8.548;2023-09-19T23:37:38;11.2;;;5.4;;
72123;SDS011;63818;37.134;-8.548;2023-09-19T23:42:25;10.9;;;5.4;;
72123;SDS011;63818;37.134;-8.548;2023-09-19T23:47:14;12.9;;;5.6;;
72123;SDS011;63818;37.134;-8.548;2023-09-19T23:52:05;11.9;;;5.6;;
72123;SDS011;63818;37.134;-8.548;2023-09-19T23:56:53;14.4;;;5.9;;
